createdAt,value
2023-02-06T00:00:46.645Z,0
2023-02-06T00:02:02.825Z,0
2023-02-06T00:03:19.015Z,0
2023-02-06T00:04:35.210Z,0
2023-02-06T00:05:51.266Z,0
2023-02-06T00:07:07.579Z,0
2023-02-06T00:08:22.782Z,0
2023-02-06T00:09:38.970Z,0
2023-02-06T00:10:55.167Z,0
2023-02-06T00:12:11.344Z,0
2023-02-06T00:13:27.526Z,0
2023-02-06T00:14:43.713Z,0
2023-02-06T00:15:59.916Z,0
2023-02-06T00:17:16.088Z,0
2023-02-06T00:18:32.288Z,0
2023-02-06T00:19:48.470Z,0
2023-02-06T00:21:04.658Z,0
2023-02-06T00:22:20.846Z,0
2023-02-06T00:23:37.024Z,0
2023-02-06T00:24:52.234Z,0
2023-02-06T00:26:08.418Z,0
2023-02-06T00:27:24.473Z,0
2023-02-06T00:28:40.805Z,0
2023-02-06T00:29:56.993Z,0
2023-02-06T00:31:13.172Z,0
2023-02-06T00:32:29.353Z,0
2023-02-06T00:33:45.419Z,0
2023-02-06T00:35:01.735Z,0
2023-02-06T00:36:17.789Z,0
2023-02-06T00:37:34.104Z,0
2023-02-06T00:38:50.303Z,0
2023-02-06T00:40:06.477Z,0
2023-02-06T00:41:21.692Z,0
2023-02-06T00:42:37.878Z,0
2023-02-06T00:43:53.938Z,0
2023-02-06T00:45:10.243Z,0
2023-02-06T00:46:26.435Z,0
2023-02-06T00:47:42.626Z,0
2023-02-06T00:48:58.811Z,0
2023-02-06T00:50:14.995Z,0
2023-02-06T00:51:31.042Z,0
2023-02-06T00:52:47.376Z,0
2023-02-06T00:54:03.568Z,0
2023-02-06T00:55:19.616Z,0
2023-02-06T00:56:35.805Z,0
2023-02-06T00:57:51.012Z,0
2023-02-06T00:59:07.321Z,0
2023-02-06T01:00:23.519Z,0
2023-02-06T01:01:39.706Z,0
2023-02-06T01:02:55.892Z,0
2023-02-06T01:04:12.081Z,0
2023-02-06T01:05:28.259Z,0
2023-02-06T01:06:44.454Z,0
2023-02-06T01:08:00.647Z,0
2023-02-06T01:09:16.691Z,0
2023-02-06T01:10:33.016Z,0
2023-02-06T01:11:49.062Z,0
2023-02-06T01:13:05.240Z,0
2023-02-06T01:14:20.586Z,0
2023-02-06T01:15:36.768Z,0
2023-02-06T01:16:52.821Z,0
2023-02-06T01:18:09.153Z,0
2023-02-06T01:19:25.338Z,0
2023-02-06T01:20:41.535Z,0
2023-02-06T01:21:57.715Z,0
2023-02-06T01:23:13.911Z,0
2023-02-06T01:24:30.090Z,0
2023-02-06T01:25:46.288Z,0
2023-02-06T01:27:02.466Z,0
2023-02-06T01:28:18.516Z,0
2023-02-06T01:29:34.707Z,0
2023-02-06T01:30:49.896Z,0
2023-02-06T01:32:06.096Z,0
2023-02-06T01:33:22.284Z,0
2023-02-06T01:34:38.685Z,0
2023-02-06T01:35:54.871Z,0
2023-02-06T01:37:10.832Z,0
2023-02-06T01:38:27.233Z,0
2023-02-06T01:39:43.211Z,0
2023-02-06T01:40:59.607Z,0
2023-02-06T01:42:15.805Z,0
2023-02-06T01:43:31.982Z,0
2023-02-06T01:44:47.963Z,0
2023-02-06T01:46:04.145Z,0
2023-02-06T01:47:19.569Z,0
2023-02-06T01:48:35.761Z,0
2023-02-06T01:49:51.720Z,0
2023-02-06T01:51:07.901Z,0
2023-02-06T01:52:24.100Z,0
2023-02-06T01:53:40.505Z,0
2023-02-06T01:54:55.702Z,0
2023-02-06T01:56:11.894Z,0
2023-02-06T01:57:28.091Z,0
2023-02-06T01:58:44.285Z,0
2023-02-06T02:00:00.237Z,0
2023-02-06T02:01:16.645Z,0
2023-02-06T02:02:32.844Z,0
2023-02-06T02:03:49.029Z,0
2023-02-06T02:05:05.219Z,0
2023-02-06T02:06:21.407Z,0
2023-02-06T02:07:37.360Z,0
2023-02-06T02:08:53.775Z,0
2023-02-06T02:10:09.730Z,0
2023-02-06T02:11:25.169Z,0
2023-02-06T02:12:41.354Z,0
2023-02-06T02:13:57.544Z,0
2023-02-06T02:15:13.495Z,0
2023-02-06T02:16:29.696Z,0
2023-02-06T02:17:46.107Z,0
2023-02-06T02:19:02.296Z,0
2023-02-06T02:20:18.474Z,0
2023-02-06T02:21:34.658Z,0
2023-02-06T02:22:50.631Z,0
2023-02-06T02:24:07.039Z,0
2023-02-06T02:25:22.997Z,0
2023-02-06T02:26:39.409Z,0
2023-02-06T02:27:54.617Z,0
2023-02-06T02:29:10.586Z,0
2023-02-06T02:30:27.000Z,0
2023-02-06T02:31:43.180Z,0
2023-02-06T02:32:59.363Z,0
2023-02-06T02:34:15.321Z,0
2023-02-06T02:35:31.512Z,0
2023-02-06T02:36:47.927Z,0
2023-02-06T02:38:03.894Z,0
2023-02-06T02:39:20.293Z,0
2023-02-06T02:40:36.503Z,0
2023-02-06T02:41:52.685Z,0
2023-02-06T02:43:08.864Z,0
2023-02-06T02:44:24.066Z,0
2023-02-06T02:45:40.264Z,0
2023-02-06T02:46:56.436Z,0
2023-02-06T02:48:12.622Z,0
2023-02-06T02:49:28.580Z,0
2023-02-06T02:50:45.002Z,0
2023-02-06T02:52:01.197Z,0
2023-02-06T02:53:17.370Z,0
2023-02-06T02:54:33.343Z,0
2023-02-06T02:55:49.746Z,0
2023-02-06T02:57:05.935Z,0
2023-02-06T02:58:22.123Z,0
2023-02-06T02:59:38.092Z,0
2023-02-06T03:00:53.297Z,0
2023-02-06T03:02:09.485Z,0
2023-02-06T03:03:25.906Z,0
2023-02-06T03:04:42.089Z,0
2023-02-06T03:05:58.044Z,0
2023-02-06T03:07:14.473Z,0
2023-02-06T03:08:30.663Z,0
2023-02-06T03:09:46.840Z,0
2023-02-06T03:11:03.033Z,0
2023-02-06T03:12:19.225Z,0
2023-02-06T03:13:35.418Z,0
2023-02-06T03:14:51.597Z,0
2023-02-06T03:16:07.546Z,0
2023-02-06T03:17:23.003Z,0
2023-02-06T03:18:39.191Z,0
2023-02-06T03:19:55.379Z,0
2023-02-06T03:21:11.552Z,0
2023-02-06T03:22:27.755Z,0
2023-02-06T03:23:43.699Z,0
2023-02-06T03:25:00.132Z,0
2023-02-06T03:26:16.319Z,0
2023-02-06T03:27:32.274Z,0
2023-02-06T03:28:48.698Z,0
2023-02-06T03:30:04.893Z,0
2023-02-06T03:31:20.827Z,0
2023-02-06T03:32:37.023Z,0
2023-02-06T03:33:52.234Z,0
2023-02-06T03:35:08.657Z,0
2023-02-06T03:36:24.835Z,0
2023-02-06T03:37:41.034Z,0
2023-02-06T03:38:57.220Z,0
2023-02-06T03:40:13.405Z,0
2023-02-06T03:41:29.608Z,0
2023-02-06T03:42:45.783Z,0
2023-02-06T03:44:01.984Z,0
2023-02-06T03:45:17.924Z,0
2023-02-06T03:46:34.351Z,0
2023-02-06T03:47:50.544Z,0
2023-02-06T03:49:06.740Z,0
2023-02-06T03:50:21.946Z,0
2023-02-06T03:51:38.133Z,0
2023-02-06T03:52:54.313Z,0
2023-02-06T03:54:10.507Z,0
2023-02-06T03:55:26.689Z,0
2023-02-06T03:56:42.876Z,0
2023-02-06T03:57:58.830Z,0
2023-02-06T03:59:15.270Z,0
2023-02-06T04:00:31.450Z,0
2023-02-06T04:01:47.401Z,0
2023-02-06T04:03:03.838Z,0
2023-02-06T04:04:20.174Z,0
2023-02-06T04:05:36.102Z,0
2023-02-06T04:06:51.552Z,0
2023-02-06T04:08:07.749Z,0
2023-02-06T04:09:23.945Z,0
2023-02-06T04:10:40.121Z,0
2023-02-06T04:11:56.313Z,0
2023-02-06T04:13:12.507Z,0
2023-02-06T04:14:28.689Z,0
2023-02-06T04:15:44.879Z,0
2023-02-06T04:17:00.835Z,0
2023-02-06T04:18:17.261Z,0
2023-02-06T04:19:33.452Z,0
2023-02-06T04:20:49.640Z,0
2023-02-06T04:22:05.833Z,0
2023-02-06T04:23:20.779Z,0
2023-02-06T04:24:37.216Z,0
2023-02-06T04:25:53.405Z,0
2023-02-06T04:27:09.362Z,0
2023-02-06T04:28:25.798Z,0
2023-02-06T04:29:41.984Z,0
2023-02-06T04:30:58.162Z,0
2023-02-06T04:32:14.107Z,0
2023-02-06T04:33:30.548Z,0
2023-02-06T04:34:46.745Z,0
2023-02-06T04:36:02.924Z,0
2023-02-06T04:37:19.118Z,0
2023-02-06T04:38:35.307Z,0
2023-02-06T04:39:50.514Z,0
2023-02-06T04:41:06.702Z,0
2023-02-06T04:42:22.884Z,0
2023-02-06T04:43:39.081Z,0
2023-02-06T04:44:55.265Z,0
2023-02-06T04:46:11.459Z,0
2023-02-06T04:47:27.634Z,0
2023-02-06T04:48:43.578Z,0
2023-02-06T04:49:59.771Z,0
2023-02-06T04:51:16.208Z,0
2023-02-06T04:52:32.401Z,0
2023-02-06T04:53:48.586Z,0
2023-02-06T04:55:04.513Z,0
2023-02-06T04:56:19.715Z,0
2023-02-06T04:57:36.177Z,0
2023-02-06T04:58:52.362Z,0
2023-02-06T05:00:08.288Z,0
2023-02-06T05:01:24.746Z,0
2023-02-06T05:02:40.669Z,0
2023-02-06T05:03:57.125Z,0
2023-02-06T05:05:13.311Z,0
2023-02-06T05:06:29.500Z,0
2023-02-06T05:07:45.685Z,0
2023-02-06T05:09:01.883Z,0
2023-02-06T05:10:17.802Z,0
2023-02-06T05:11:34.248Z,0
2023-02-06T05:12:49.465Z,0
2023-02-06T05:14:05.643Z,0
2023-02-06T05:15:21.846Z,0
2023-02-06T05:16:38.016Z,0
2023-02-06T05:17:53.956Z,0
2023-02-06T05:19:10.411Z,0
2023-02-06T05:20:26.588Z,0
2023-02-06T05:21:42.783Z,0
2023-02-06T05:22:58.973Z,0
2023-02-06T05:24:15.159Z,0
2023-02-06T05:25:31.098Z,0
2023-02-06T05:26:47.542Z,0
2023-02-06T05:28:03.466Z,0
2023-02-06T05:29:18.923Z,0
2023-02-06T05:30:35.115Z,0
2023-02-06T05:31:51.312Z,0
2023-02-06T05:33:07.227Z,0
2023-02-06T05:34:23.688Z,0
2023-02-06T05:35:39.872Z,0
2023-02-06T05:36:56.070Z,0
2023-02-06T05:38:12.260Z,0
2023-02-06T05:39:28.187Z,0
2023-02-06T05:40:44.639Z,0
2023-02-06T05:42:00.828Z,0
2023-02-06T05:43:16.744Z,0
2023-02-06T05:44:33.209Z,0
2023-02-06T05:45:48.411Z,0
2023-02-06T05:47:04.602Z,0
2023-02-06T05:48:20.527Z,0
2023-02-06T05:49:36.978Z,0
2023-02-06T05:50:53.156Z,0
2023-02-06T05:52:09.352Z,0
2023-02-06T05:53:25.540Z,0
2023-02-06T05:54:41.736Z,0
2023-02-06T05:55:57.664Z,0
2023-02-06T05:57:14.117Z,0
2023-02-06T05:58:30.030Z,0
2023-02-06T05:59:46.486Z,0
2023-02-06T06:01:02.685Z,0
2023-02-06T06:02:18.862Z,0
2023-02-06T06:03:33.799Z,0
2023-02-06T06:04:49.993Z,0
2023-02-06T06:06:06.443Z,0
2023-02-06T06:07:22.644Z,0
2023-02-06T06:08:38.559Z,0
2023-02-06T06:09:53.772Z,0
2023-02-06T06:11:09.951Z,0
2023-02-06T06:12:26.416Z,0
2023-02-06T06:13:42.610Z,0
2023-02-06T06:14:58.797Z,0
2023-02-06T06:16:14.988Z,0
2023-02-06T06:17:31.180Z,0
2023-02-06T06:18:47.098Z,0
2023-02-06T06:20:03.551Z,0
2023-02-06T06:21:19.753Z,0
2023-02-06T06:22:35.928Z,0
2023-02-06T06:23:52.131Z,0
2023-02-06T06:25:08.314Z,0
2023-02-06T06:26:23.246Z,0
2023-02-06T06:27:39.710Z,0
2023-02-06T06:28:55.901Z,0
2023-02-06T06:30:11.808Z,0
2023-02-06T06:31:28.270Z,0
2023-02-06T06:32:44.460Z,0
2023-02-06T06:34:00.382Z,0
2023-02-06T06:35:16.842Z,0
2023-02-06T06:36:33.023Z,0
2023-02-06T06:37:49.223Z,0
2023-02-06T06:39:05.126Z,0
2023-02-06T06:40:21.590Z,0
2023-02-06T06:41:37.505Z,0
2023-02-06T06:42:52.983Z,0
2023-02-06T06:44:09.185Z,0
2023-02-06T06:45:25.378Z,0
2023-02-06T06:46:41.289Z,0
2023-02-06T06:47:57.745Z,0
2023-02-06T06:49:13.929Z,0
2023-02-06T06:50:30.128Z,0
2023-02-06T06:51:46.327Z,0
2023-02-06T06:53:02.229Z,0
2023-02-06T06:54:18.703Z,0
2023-02-06T06:55:34.609Z,0
2023-02-06T06:56:50.801Z,0
2023-02-06T06:58:07.258Z,0
2023-02-06T06:59:22.477Z,0
2023-02-06T07:00:38.665Z,0
2023-02-06T07:01:54.560Z,0
2023-02-06T07:03:11.029Z,0
2023-02-06T07:04:27.233Z,0
2023-02-06T07:05:43.131Z,0
2023-02-06T07:06:59.612Z,0
2023-02-06T07:08:15.503Z,0
2023-02-06T07:09:31.983Z,5
2023-02-06T07:10:48.170Z,5
2023-02-06T07:12:04.066Z,5
2023-02-06T07:13:20.559Z,5
2023-02-06T07:14:36.738Z,5
2023-02-06T07:15:51.941Z,5
2023-02-06T07:17:08.127Z,5
2023-02-06T07:18:24.328Z,5
2023-02-06T07:19:40.222Z,5
2023-02-06T07:20:56.706Z,5
2023-02-06T07:22:12.608Z,5
2023-02-06T07:23:29.076Z,5
2023-02-06T07:24:45.266Z,5
2023-02-06T07:26:01.452Z,5
2023-02-06T07:27:17.652Z,5
2023-02-06T07:28:33.832Z,11
2023-02-06T07:29:49.735Z,11
2023-02-06T07:31:06.216Z,11
2023-02-06T07:32:21.430Z,11
2023-02-06T07:33:37.316Z,11
2023-02-06T07:34:53.802Z,11
2023-02-06T07:36:09.988Z,16
2023-02-06T07:37:26.179Z,16
2023-02-06T07:38:42.372Z,22
2023-02-06T07:39:58.565Z,22
2023-02-06T07:41:14.750Z,22
2023-02-06T07:42:30.638Z,22
2023-02-06T07:43:47.133Z,28
2023-02-06T07:45:03.309Z,28
2023-02-06T07:46:19.507Z,28
2023-02-06T07:47:35.405Z,28
2023-02-06T07:48:50.894Z,28
2023-02-06T07:50:07.094Z,28
2023-02-06T07:51:23.279Z,33
2023-02-06T07:52:39.472Z,33
2023-02-06T07:53:55.350Z,33
2023-02-06T07:55:11.837Z,39
2023-02-06T07:56:28.033Z,39
2023-02-06T07:57:43.919Z,39
2023-02-06T07:59:00.105Z,39
2023-02-06T08:00:16.594Z,39
2023-02-06T08:01:32.787Z,45
2023-02-06T08:02:48.983Z,45
2023-02-06T08:04:04.871Z,50
2023-02-06T08:05:20.075Z,50
2023-02-06T08:06:36.566Z,45
2023-02-06T08:07:52.743Z,45
2023-02-06T08:09:08.929Z,39
2023-02-06T08:10:25.126Z,33
2023-02-06T08:11:41.324Z,28
2023-02-06T08:12:57.212Z,28
2023-02-06T08:14:13.704Z,22
2023-02-06T08:15:29.882Z,16
2023-02-06T08:16:46.080Z,16
2023-02-06T08:18:02.270Z,16
2023-02-06T08:19:18.457Z,22
2023-02-06T08:20:34.334Z,22
2023-02-06T08:21:49.844Z,28
2023-02-06T08:23:05.738Z,33
2023-02-06T08:24:21.924Z,39
2023-02-06T08:25:38.415Z,39
2023-02-06T08:26:54.602Z,39
2023-02-06T08:28:10.491Z,39
2023-02-06T08:29:26.986Z,39
2023-02-06T08:30:43.180Z,39
2023-02-06T08:31:59.048Z,45
2023-02-06T08:33:15.538Z,50
2023-02-06T08:34:31.747Z,50
2023-02-06T08:35:47.626Z,50
2023-02-06T08:37:04.107Z,39
2023-02-06T08:38:19.323Z,33
2023-02-06T08:39:35.512Z,33
2023-02-06T08:40:51.401Z,33
2023-02-06T08:42:07.896Z,28
2023-02-06T08:43:23.780Z,33
2023-02-06T08:44:39.951Z,33
2023-02-06T08:45:56.447Z,33
2023-02-06T08:47:12.646Z,28
2023-02-06T08:48:28.834Z,28
2023-02-06T08:49:45.015Z,22
2023-02-06T08:51:00.914Z,22
2023-02-06T08:52:17.096Z,22
2023-02-06T08:53:33.587Z,22
2023-02-06T08:54:48.796Z,22
2023-02-06T08:56:04.993Z,22
2023-02-06T08:57:21.165Z,28
2023-02-06T08:58:37.056Z,28
2023-02-06T08:59:53.548Z,33
2023-02-06T09:01:09.742Z,39
2023-02-06T09:02:25.933Z,39
2023-02-06T09:03:41.813Z,39
2023-02-06T09:04:58.310Z,39
2023-02-06T09:06:14.191Z,33
2023-02-06T09:07:30.686Z,33
2023-02-06T09:08:46.566Z,28
2023-02-06T09:10:03.058Z,28
2023-02-06T09:11:17.960Z,33
2023-02-06T09:12:34.144Z,33
2023-02-06T09:13:50.333Z,33
2023-02-06T09:15:06.520Z,33
2023-02-06T09:16:23.019Z,33
2023-02-06T09:17:39.225Z,28
2023-02-06T09:18:55.405Z,28
2023-02-06T09:20:11.595Z,28
2023-02-06T09:21:27.477Z,28
2023-02-06T09:22:43.978Z,33
2023-02-06T09:24:00.170Z,28
2023-02-06T09:25:16.354Z,28
2023-02-06T09:26:32.538Z,22
2023-02-06T09:27:47.439Z,22
2023-02-06T09:29:03.615Z,22
2023-02-06T09:30:20.123Z,28
2023-02-06T09:31:36.312Z,28
2023-02-06T09:32:52.497Z,28
2023-02-06T09:34:08.684Z,28
2023-02-06T09:35:24.573Z,28
2023-02-06T09:36:40.752Z,22
2023-02-06T09:37:56.949Z,22
2023-02-06T09:39:13.131Z,22
2023-02-06T09:40:29.325Z,22
2023-02-06T09:41:45.516Z,22
2023-02-06T09:43:02.020Z,22
2023-02-06T09:44:16.910Z,16
2023-02-06T09:45:33.417Z,22
2023-02-06T09:46:49.604Z,16
2023-02-06T09:48:05.790Z,22
2023-02-06T09:49:21.970Z,22
2023-02-06T09:50:38.164Z,22
2023-02-06T09:51:54.359Z,16
2023-02-06T09:53:10.519Z,16
2023-02-06T09:54:26.736Z,16
2023-02-06T09:55:42.921Z,22
2023-02-06T09:56:59.109Z,22
2023-02-06T09:58:15.295Z,16
2023-02-06T09:59:31.462Z,22
2023-02-06T10:00:46.685Z,16
2023-02-06T10:02:02.880Z,16
2023-02-06T10:03:19.083Z,22
2023-02-06T10:04:35.261Z,22
2023-02-06T10:05:51.455Z,22
2023-02-06T10:07:07.617Z,28
2023-02-06T10:08:23.828Z,22
2023-02-06T10:09:40.011Z,22
2023-02-06T10:10:56.211Z,22
2023-02-06T10:12:12.403Z,22
2023-02-06T10:13:28.591Z,28
2023-02-06T10:14:44.750Z,28
2023-02-06T10:16:00.968Z,28
2023-02-06T10:17:16.167Z,28
2023-02-06T10:18:32.336Z,28
2023-02-06T10:19:48.548Z,28
2023-02-06T10:21:04.713Z,28
2023-02-06T10:22:20.905Z,28
2023-02-06T10:23:37.107Z,33
2023-02-06T10:24:52.295Z,28
2023-02-06T10:26:08.509Z,28
2023-02-06T10:27:24.700Z,28
2023-02-06T10:28:40.884Z,33
2023-02-06T10:29:57.055Z,33
2023-02-06T10:31:13.279Z,33
2023-02-06T10:32:29.463Z,33
2023-02-06T10:33:45.654Z,33
2023-02-06T10:35:01.835Z,39
2023-02-06T10:36:18.034Z,33
2023-02-06T10:37:34.194Z,28
2023-02-06T10:38:50.398Z,28
2023-02-06T10:40:06.600Z,33
2023-02-06T10:41:21.808Z,28
2023-02-06T10:42:37.968Z,33
2023-02-06T10:43:54.186Z,39
2023-02-06T10:45:10.339Z,39
2023-02-06T10:46:26.567Z,39
2023-02-06T10:47:42.742Z,39
2023-02-06T10:48:58.936Z,28
2023-02-06T10:50:15.093Z,28
2023-02-06T10:51:31.312Z,28
2023-02-06T10:52:47.475Z,39
2023-02-06T10:54:03.698Z,39
2023-02-06T10:55:19.885Z,39
2023-02-06T10:56:36.073Z,39
2023-02-06T10:57:51.273Z,45
2023-02-06T10:59:07.460Z,45
2023-02-06T11:00:23.616Z,56
2023-02-06T11:01:39.847Z,50
2023-02-06T11:02:56.023Z,61
2023-02-06T11:04:12.216Z,61
2023-02-06T11:05:28.409Z,45
2023-02-06T11:06:44.601Z,45
2023-02-06T11:08:00.746Z,45
2023-02-06T11:09:16.939Z,50
2023-02-06T11:10:33.140Z,61
2023-02-06T11:11:49.321Z,67
2023-02-06T11:13:05.537Z,56
2023-02-06T11:14:20.755Z,56
2023-02-06T11:15:36.914Z,50
2023-02-06T11:16:53.091Z,56
2023-02-06T11:18:09.322Z,61
2023-02-06T11:19:25.506Z,56
2023-02-06T11:20:41.658Z,73
2023-02-06T11:21:57.841Z,84
2023-02-06T11:23:14.082Z,73
2023-02-06T11:24:30.257Z,73
2023-02-06T11:25:46.459Z,78
2023-02-06T11:27:02.646Z,78
2023-02-06T11:28:18.832Z,78
2023-02-06T11:29:34.977Z,84
2023-02-06T11:30:50.193Z,95
2023-02-06T11:32:06.374Z,95
2023-02-06T11:33:22.604Z,90
2023-02-06T11:34:38.753Z,73
2023-02-06T11:35:54.984Z,90
2023-02-06T11:37:11.163Z,78
2023-02-06T11:38:27.331Z,78
2023-02-06T11:39:43.555Z,101
2023-02-06T11:40:59.740Z,106
2023-02-06T11:42:15.926Z,118
2023-02-06T11:43:32.119Z,140
2023-02-06T11:44:48.314Z,140
2023-02-06T11:46:04.457Z,123
2023-02-06T11:47:19.654Z,146
2023-02-06T11:48:35.887Z,140
2023-02-06T11:49:52.087Z,90
2023-02-06T11:51:08.261Z,112
2023-02-06T11:52:24.454Z,118
2023-02-06T11:53:40.595Z,106
2023-02-06T11:54:56.828Z,95
2023-02-06T11:56:12.980Z,90
2023-02-06T11:57:29.217Z,135
2023-02-06T11:58:45.367Z,112
2023-02-06T12:00:01.546Z,146
2023-02-06T12:01:17.739Z,118
2023-02-06T12:02:33.964Z,118
2023-02-06T12:03:49.181Z,112
2023-02-06T12:05:05.319Z,78
2023-02-06T12:06:21.510Z,67
2023-02-06T12:07:37.737Z,56
2023-02-06T12:08:53.894Z,61
2023-02-06T12:10:10.084Z,67
2023-02-06T12:11:26.311Z,78
2023-02-06T12:12:42.456Z,95
2023-02-06T12:13:58.689Z,112
2023-02-06T12:15:14.886Z,90
2023-02-06T12:16:31.013Z,67
2023-02-06T12:17:47.252Z,73
2023-02-06T12:19:03.436Z,123
2023-02-06T12:20:18.642Z,90
2023-02-06T12:21:34.846Z,67
2023-02-06T12:22:51.036Z,67
2023-02-06T12:24:07.171Z,78
2023-02-06T12:25:23.361Z,84
2023-02-06T12:26:39.596Z,73
2023-02-06T12:27:55.794Z,67
2023-02-06T12:29:11.968Z,73
2023-02-06T12:30:28.102Z,90
2023-02-06T12:31:44.309Z,78
2023-02-06T12:33:00.538Z,78
2023-02-06T12:34:16.682Z,73
2023-02-06T12:35:32.905Z,84
2023-02-06T12:36:48.113Z,73
2023-02-06T12:38:04.309Z,67
2023-02-06T12:39:20.432Z,84
2023-02-06T12:40:36.623Z,101
2023-02-06T12:41:52.867Z,73
2023-02-06T12:43:09.060Z,90
2023-02-06T12:44:25.237Z,90
2023-02-06T12:45:41.423Z,106
2023-02-06T12:46:57.571Z,106
2023-02-06T12:48:13.799Z,129
2023-02-06T12:49:29.983Z,151
2023-02-06T12:50:46.182Z,129
2023-02-06T12:52:02.367Z,123
2023-02-06T12:53:17.578Z,118
2023-02-06T12:54:33.758Z,112
2023-02-06T12:55:49.949Z,118
2023-02-06T12:57:06.123Z,123
2023-02-06T12:58:22.320Z,118
2023-02-06T12:59:38.455Z,118
2023-02-06T13:00:54.635Z,118
2023-02-06T13:02:10.820Z,123
2023-02-06T13:03:27.016Z,112
2023-02-06T13:04:43.252Z,106
2023-02-06T13:05:59.440Z,112
2023-02-06T13:07:15.628Z,118
2023-02-06T13:08:31.822Z,106
2023-02-06T13:09:46.964Z,95
2023-02-06T13:11:03.205Z,101
2023-02-06T13:12:19.390Z,112
2023-02-06T13:13:35.513Z,112
2023-02-06T13:14:51.764Z,106
2023-02-06T13:16:07.968Z,106
2023-02-06T13:17:24.081Z,101
2023-02-06T13:18:40.334Z,129
2023-02-06T13:19:56.525Z,151
2023-02-06T13:21:12.700Z,140
2023-02-06T13:22:28.889Z,129
2023-02-06T13:23:45.027Z,95
2023-02-06T13:25:01.213Z,106
2023-02-06T13:26:16.466Z,101
2023-02-06T13:27:32.658Z,90
2023-02-06T13:28:48.774Z,106
2023-02-06T13:30:05.032Z,112
2023-02-06T13:31:21.233Z,123
2023-02-06T13:32:37.408Z,129
2023-02-06T13:33:53.609Z,118
2023-02-06T13:35:09.791Z,95
2023-02-06T13:36:25.967Z,90
2023-02-06T13:37:42.171Z,84
2023-02-06T13:38:58.342Z,78
2023-02-06T13:40:14.471Z,78
2023-02-06T13:41:30.731Z,78
2023-02-06T13:42:45.920Z,73
2023-02-06T13:44:02.118Z,73
2023-02-06T13:45:18.296Z,67
2023-02-06T13:46:34.480Z,67
2023-02-06T13:47:50.611Z,61
2023-02-06T13:49:06.806Z,61
2023-02-06T13:50:23.062Z,56
2023-02-06T13:51:39.176Z,56
2023-02-06T13:52:55.361Z,61
2023-02-06T13:54:11.542Z,56
2023-02-06T13:55:27.803Z,61
2023-02-06T13:56:43.995Z,61
2023-02-06T13:58:00.177Z,73
2023-02-06T13:59:15.375Z,67
2023-02-06T14:00:31.569Z,56
2023-02-06T14:01:47.753Z,61
2023-02-06T14:03:03.868Z,78
2023-02-06T14:04:20.136Z,67
2023-02-06T14:05:36.243Z,73
2023-02-06T14:06:52.429Z,73
2023-02-06T14:08:08.620Z,78
2023-02-06T14:09:24.876Z,90
2023-02-06T14:10:40.993Z,84
2023-02-06T14:11:57.252Z,78
2023-02-06T14:13:13.449Z,90
2023-02-06T14:14:29.561Z,95
2023-02-06T14:15:44.748Z,95
2023-02-06T14:17:01.024Z,84
2023-02-06T14:18:17.213Z,95
2023-02-06T14:19:33.396Z,101
2023-02-06T14:20:49.592Z,90
2023-02-06T14:22:05.695Z,67
2023-02-06T14:23:21.967Z,56
2023-02-06T14:24:38.155Z,45
2023-02-06T14:25:54.249Z,45
2023-02-06T14:27:10.526Z,50
2023-02-06T14:28:26.715Z,50
2023-02-06T14:29:42.890Z,56
2023-02-06T14:30:59.081Z,56
2023-02-06T14:32:14.278Z,56
2023-02-06T14:33:30.390Z,56
2023-02-06T14:34:46.664Z,56
2023-02-06T14:36:02.853Z,61
2023-02-06T14:37:19.027Z,78
2023-02-06T14:38:35.140Z,73
2023-02-06T14:39:50.439Z,56
2023-02-06T14:41:06.538Z,56
2023-02-06T14:42:22.735Z,56
2023-02-06T14:43:38.907Z,50
2023-02-06T14:44:55.098Z,56
2023-02-06T14:46:11.365Z,56
2023-02-06T14:47:27.476Z,61
2023-02-06T14:48:43.752Z,50
2023-02-06T14:49:59.933Z,39
2023-02-06T14:51:16.048Z,39
2023-02-06T14:52:32.313Z,39
2023-02-06T14:53:48.495Z,39
2023-02-06T14:55:04.686Z,39
2023-02-06T14:56:19.808Z,39
2023-02-06T14:57:36.072Z,33
2023-02-06T14:58:52.262Z,33
2023-02-06T15:00:08.441Z,33
2023-02-06T15:01:24.644Z,33
2023-02-06T15:02:40.824Z,33
2023-02-06T15:03:56.916Z,33
2023-02-06T15:05:13.206Z,28
2023-02-06T15:06:29.394Z,28
2023-02-06T15:07:45.565Z,28
2023-02-06T15:09:01.759Z,28
2023-02-06T15:10:17.942Z,28
2023-02-06T15:11:34.042Z,28
2023-02-06T15:12:49.328Z,28
2023-02-06T15:14:05.532Z,28
2023-02-06T15:15:21.713Z,22
2023-02-06T15:16:37.810Z,22
2023-02-06T15:17:54.077Z,22
2023-02-06T15:19:10.196Z,22
2023-02-06T15:20:26.457Z,22
2023-02-06T15:21:42.643Z,22
2023-02-06T15:22:58.846Z,22
2023-02-06T15:24:15.021Z,16
2023-02-06T15:25:31.214Z,16
2023-02-06T15:26:47.304Z,16
2023-02-06T15:28:03.593Z,16
2023-02-06T15:29:18.705Z,16
2023-02-06T15:30:34.968Z,16
2023-02-06T15:31:51.078Z,16
2023-02-06T15:33:07.261Z,11
2023-02-06T15:34:23.444Z,11
2023-02-06T15:35:39.629Z,11
2023-02-06T15:36:55.881Z,11
2023-02-06T15:38:12.078Z,11
2023-02-06T15:39:28.202Z,11
2023-02-06T15:40:44.447Z,11
2023-02-06T15:42:00.583Z,11
2023-02-06T15:43:16.830Z,11
2023-02-06T15:44:33.002Z,5
2023-02-06T15:45:48.144Z,5
2023-02-06T15:47:04.393Z,5
2023-02-06T15:48:20.588Z,5
2023-02-06T15:49:36.721Z,5
2023-02-06T15:50:52.966Z,5
2023-02-06T15:52:09.148Z,5
2023-02-06T15:53:25.330Z,5
2023-02-06T15:54:41.537Z,5
2023-02-06T15:55:57.640Z,5
2023-02-06T15:57:13.833Z,0
2023-02-06T15:58:30.090Z,0
2023-02-06T15:59:46.270Z,0
2023-02-06T16:01:02.406Z,0
2023-02-06T16:02:17.669Z,0
2023-02-06T16:03:33.854Z,0
2023-02-06T16:04:49.971Z,0
2023-02-06T16:06:06.237Z,0
2023-02-06T16:07:22.420Z,0
2023-02-06T16:08:38.531Z,0
2023-02-06T16:09:54.733Z,0
2023-02-06T16:11:10.976Z,0
2023-02-06T16:12:27.104Z,0
2023-02-06T16:13:43.357Z,0
2023-02-06T16:14:59.533Z,0
2023-02-06T16:16:15.661Z,0
2023-02-06T16:17:31.913Z,0
2023-02-06T16:18:47.114Z,0
2023-02-06T16:20:03.244Z,0
2023-02-06T16:21:19.502Z,0
2023-02-06T16:22:35.674Z,0
2023-02-06T16:23:51.874Z,0
2023-02-06T16:25:08.050Z,0
2023-02-06T16:26:24.253Z,0
2023-02-06T16:27:40.365Z,0
2023-02-06T16:28:56.615Z,0
2023-02-06T16:30:12.808Z,0
2023-02-06T16:31:29.002Z,0
2023-02-06T16:32:45.118Z,0
2023-02-06T16:34:01.287Z,0
2023-02-06T16:35:16.512Z,0
2023-02-06T16:36:32.751Z,0
2023-02-06T16:37:48.947Z,0
2023-02-06T16:39:05.137Z,0
2023-02-06T16:40:21.315Z,0
2023-02-06T16:41:37.506Z,0
2023-02-06T16:42:53.699Z,0
2023-02-06T16:44:09.884Z,0
2023-02-06T16:45:26.062Z,0
2023-02-06T16:46:42.250Z,0
2023-02-06T16:47:58.442Z,0
2023-02-06T16:49:14.635Z,0
2023-02-06T16:50:30.740Z,0
2023-02-06T16:51:46.034Z,0
2023-02-06T16:53:02.000Z,0
2023-02-06T16:54:18.392Z,0
2023-02-06T16:55:34.503Z,0
2023-02-06T16:56:50.784Z,0
2023-02-06T16:58:06.887Z,0
2023-02-06T16:59:23.065Z,0
2023-02-06T17:00:39.329Z,0
2023-02-06T17:01:55.532Z,0
2023-02-06T17:03:11.642Z,0
2023-02-06T17:04:27.890Z,0
2023-02-06T17:05:44.001Z,0
2023-02-06T17:07:00.189Z,0
2023-02-06T17:08:15.488Z,0
2023-02-06T17:09:31.659Z,0
2023-02-06T17:10:47.857Z,0
2023-02-06T17:12:04.035Z,0
2023-02-06T17:13:20.141Z,0
2023-02-06T17:14:36.413Z,0
2023-02-06T17:15:52.601Z,0
2023-02-06T17:17:08.709Z,0
2023-02-06T17:18:24.976Z,0
2023-02-06T17:19:41.167Z,0
2023-02-06T17:20:57.275Z,0
2023-02-06T17:22:13.546Z,0
2023-02-06T17:23:29.636Z,0
2023-02-06T17:24:44.923Z,0
2023-02-06T17:26:01.121Z,0
2023-02-06T17:27:17.313Z,0
2023-02-06T17:28:33.411Z,0
2023-02-06T17:29:49.592Z,0
2023-02-06T17:31:05.861Z,0
2023-02-06T17:32:22.063Z,0
2023-02-06T17:33:38.237Z,0
2023-02-06T17:34:54.439Z,0
2023-02-06T17:36:10.541Z,0
2023-02-06T17:37:26.801Z,0
2023-02-06T17:38:42.992Z,0
2023-02-06T17:39:59.174Z,0
2023-02-06T17:41:14.382Z,0
2023-02-06T17:42:30.476Z,0
2023-02-06T17:43:46.677Z,0
2023-02-06T17:45:02.938Z,0
2023-02-06T17:46:19.139Z,0
2023-02-06T17:47:35.329Z,0
2023-02-06T17:48:51.519Z,0
2023-02-06T17:50:07.703Z,0
2023-02-06T17:52:40.082Z,0
2023-02-06T17:53:56.258Z,0
2023-02-06T17:55:12.353Z,0
2023-02-06T17:56:28.636Z,0
2023-02-06T17:57:43.836Z,0
2023-02-06T17:59:00.033Z,0
2023-02-06T18:00:16.217Z,0
2023-02-06T18:01:32.308Z,0
2023-02-06T18:02:48.504Z,0
2023-02-06T18:04:04.777Z,0
2023-02-06T18:05:20.960Z,0
2023-02-06T18:06:37.067Z,0
2023-02-06T18:07:53.327Z,0
2023-02-06T18:09:09.527Z,0
2023-02-06T18:10:25.710Z,0
2023-02-06T18:11:41.813Z,0
2023-02-06T18:12:58.079Z,0
2023-02-06T18:14:13.292Z,0
2023-02-06T18:15:29.475Z,0
2023-02-06T18:16:45.578Z,0
2023-02-06T18:18:01.844Z,0
2023-02-06T18:19:18.049Z,0
2023-02-06T18:20:34.235Z,0
2023-02-06T18:21:50.424Z,0
2023-02-06T18:23:06.512Z,0
2023-02-06T18:24:22.684Z,0
2023-02-06T18:25:38.985Z,0